Plainview, Missouri
Current Conditions -  °F | °C
As of 1:55 AM on Friday 19 Dec 2014 (Local Time) from KIRK Reporting Station
Overcast Overcast  
Wind Chill: 29°   Ceiling: 1700
Heat Index: 29°   Visibility: 7mi
Dew Point: 27°   Wind: 3mph
Humidity: 92%   Direction: 110°ESE
Pressure: 30.27"   Gusts: NA
Location:  39.9265°N, 92.4529°W
Report Text: KIRK 190755Z AUTO 11003KT 7SM OVC017 M02/M03 A3027 RMK AO2 SLP265 T10171028
Loading
Personal Weather Stations






























Interactive Weather Map New forecast layout! Learn more

10-Day Weather Forecast

Advertisements
Track Severe Weather on mobile